This is the latest recevied weather packets stored in our database for station/object DO1BDB-12. If no packets are shown the sender has not sent any weather packets the latest 10 day(s).
| Time | Temp. | Humidity | Pressure | Rain* | Wind** | Luminosity | Snow |
|---|---|---|---|---|---|---|---|
| 1778307513 | 12.78° C | 59% | 102.3 hPa | - | - | - | - |
| 1778307447 | 15° C | 54% | 102.3 hPa | - | - | - | - |
| 1778307382 | 15.56° C | 49% | 102.3 hPa | - | - | - | - |
| 1778307316 | 15.56° C | 51% | 102.3 hPa | - | - | - | - |
| 1778307250 | 17.22° C | 49% | 102.3 hPa | - | - | - | - |
| 1778307184 | 15° C | 54% | 102.3 hPa | - | - | - | - |
| 1778307118 | 13.33° C | 58% | 102.3 hPa | - | - | - | - |
| 1778307052 | 15° C | 55% | 102.3 hPa | - | - | - | - |
| 1778306987 | 16.67° C | 48% | 102.3 hPa | - | - | - | - |
| 1778306921 | 18.89° C | 46% | 102.3 hPa | - | - | - | - |
| 1778306855 | 13.89° C | 56% | 102.3 hPa | - | - | - | - |
| 1778306789 | 13.89° C | 52% | 102.3 hPa | - | - | - | - |
| 1778306723 | 15.56° C | 53% | 102.3 hPa | - | - | - | - |
| 1778306657 | 15.56° C | 52% | 102.3 hPa | - | - | - | - |
| 1778306591 | 17.22° C | 45% | 102.3 hPa | - | - | - | - |
| 1778306525 | 18.89° C | 44% | 102.3 hPa | - | - | - | - |
| 1778306460 | 18.33° C | 46% | 102.3 hPa | - | - | - | - |
| 1778306394 | 17.78° C | 47% | 102.3 hPa | - | - | - | - |
| 1778306328 | 14.44° C | 53% | 102.3 hPa | - | - | - | - |
| 1778306262 | 20° C | 43% | 102.3 hPa | - | - | - | - |
| 1778306196 | 17.22° C | 51% | 102.3 hPa | - | - | - | - |
| 1778306130 | 12.22° C | 61% | 102.3 hPa | - | - | - | - |
| 1778306065 | 12.22° C | 61% | 102.3 hPa | - | - | - | - |
| 1778305999 | 14.44° C | 53% | 102.3 hPa | - | - | - | - |
| 1778305933 | 14.44° C | 55% | 102.3 hPa | - | - | - | - |
* Rain since midnight (hover to see other rain measurements)
** Current wind speed in m/s (hover to see current wind gust speed)